sensor_id;sensor_type;location;lat;lon;timestamp;pressure;altitude;pressure_sealevel;temperature;humidity
17635;BME280;8936;49.010;12.120;2023-05-17T00:02:14;98032.81;;;13.25;100.00
17635;BME280;8936;49.010;12.120;2023-05-17T00:04:40;98027.13;;;13.36;100.00
17635;BME280;8936;49.010;12.120;2023-05-17T00:07:09;98026.75;;;12.99;100.00
17635;BME280;8936;49.010;12.120;2023-05-17T00:09:35;98037.47;;;12.94;100.00
17635;BME280;8936;49.010;12.120;2023-05-17T00:12:01;98033.31;;;12.63;100.00
17635;BME280;8936;49.010;12.120;2023-05-17T00:14:28;98028.22;;;12.71;100.00
17635;BME280;8936;49.010;12.120;2023-05-17T00:16:54;98035.41;;;12.81;100.00
17635;BME280;8936;49.010;12.120;2023-05-17T00:19:22;98037.41;;;12.35;100.00
17635;BME280;8936;49.010;12.120;2023-05-17T00:21:48;98044.94;;;12.28;100.00
17635;BME280;8936;49.010;12.120;2023-05-17T00:24:15;98036.06;;;12.42;100.00
17635;BME280;8936;49.010;12.120;2023-05-17T00:26:41;98039.81;;;12.36;100.00
17635;BME280;8936;49.010;12.120;2023-05-17T00:29:07;98040.84;;;12.56;100.00
17635;BME280;8936;49.010;12.120;2023-05-17T00:31:34;98042.78;;;12.25;100.00
17635;BME280;8936;49.010;12.120;2023-05-17T00:34:00;98047.00;;;12.51;100.00
17635;BME280;8936;49.010;12.120;2023-05-17T00:36:28;98053.50;;;12.05;100.00
17635;BME280;8936;49.010;12.120;2023-05-17T00:38:54;98058.53;;;12.52;100.00
17635;BME280;8936;49.010;12.120;2023-05-17T00:41:21;98061.44;;;12.60;100.00
17635;BME280;8936;49.010;12.120;2023-05-17T00:43:47;98055.81;;;12.67;100.00
17635;BME280;8936;49.010;12.120;2023-05-17T00:46:14;98066.88;;;12.40;100.00
17635;BME280;8936;49.010;12.120;2023-05-17T00:48:40;98069.03;;;11.93;100.00
17635;BME280;8936;49.010;12.120;2023-05-17T00:51:07;98071.41;;;12.29;100.00
17635;BME280;8936;49.010;12.120;2023-05-17T00:53:35;98071.16;;;12.31;100.00
17635;BME280;8936;49.010;12.120;2023-05-17T00:56:01;98071.97;;;12.26;100.00
17635;BME280;8936;49.010;12.120;2023-05-17T00:58:28;98076.00;;;11.94;100.00
17635;BME280;8936;49.010;12.120;2023-05-17T01:00:55;98071.97;;;12.01;100.00
17635;BME280;8936;49.010;12.120;2023-05-17T01:03:21;98081.88;;;12.06;100.00
17635;BME280;8936;49.010;12.120;2023-05-17T01:05:47;98082.41;;;11.82;100.00
17635;BME280;8936;49.010;12.120;2023-05-17T01:08:14;98085.78;;;11.37;100.00
17635;BME280;8936;49.010;12.120;2023-05-17T01:10:43;98080.41;;;11.27;100.00
17635;BME280;8936;49.010;12.120;2023-05-17T01:13:14;98082.53;;;11.30;100.00
17635;BME280;8936;49.010;12.120;2023-05-17T01:15:42;98082.44;;;12.13;100.00
17635;BME280;8936;49.010;12.120;2023-05-17T01:18:11;98076.28;;;12.12;100.00
17635;BME280;8936;49.010;12.120;2023-05-17T01:20:42;98084.28;;;11.87;100.00
17635;BME280;8936;49.010;12.120;2023-05-17T01:23:11;98085.38;;;12.21;100.00
17635;BME280;8936;49.010;12.120;2023-05-17T01:25:49;98084.81;;;12.04;100.00
17635;BME280;8936;49.010;12.120;2023-05-17T01:28:18;98087.78;;;12.03;100.00
17635;BME280;8936;49.010;12.120;2023-05-17T01:30:45;98094.19;;;12.17;100.00
17635;BME280;8936;49.010;12.120;2023-05-17T01:33:12;98093.66;;;11.95;100.00
17635;BME280;8936;49.010;12.120;2023-05-17T01:35:39;98089.09;;;12.30;100.00
17635;BME280;8936;49.010;12.120;2023-05-17T01:38:05;98102.50;;;12.15;100.00
17635;BME280;8936;49.010;12.120;2023-05-17T01:40:32;98097.41;;;12.39;100.00
17635;BME280;8936;49.010;12.120;2023-05-17T01:43:03;98089.38;;;12.14;100.00
17635;BME280;8936;49.010;12.120;2023-05-17T01:45:33;98101.41;;;12.47;100.00
17635;BME280;8936;49.010;12.120;2023-05-17T01:48:05;98093.66;;;12.20;100.00
17635;BME280;8936;49.010;12.120;2023-05-17T01:50:37;98107.00;;;11.79;100.00
17635;BME280;8936;49.010;12.120;2023-05-17T01:53:06;98112.88;;;11.66;100.00
17635;BME280;8936;49.010;12.120;2023-05-17T01:55:35;98111.78;;;11.62;100.00
17635;BME280;8936;49.010;12.120;2023-05-17T01:58:06;98111.22;;;11.50;100.00
17635;BME280;8936;49.010;12.120;2023-05-17T02:00:34;98117.13;;;11.57;100.00
17635;BME280;8936;49.010;12.120;2023-05-17T02:03:01;98114.19;;;11.54;100.00
17635;BME280;8936;49.010;12.120;2023-05-17T02:05:27;98113.91;;;11.50;100.00
17635;BME280;8936;49.010;12.120;2023-05-17T02:07:54;98120.63;;;11.63;100.00
17635;BME280;8936;49.010;12.120;2023-05-17T02:10:20;98113.41;;;11.68;100.00
17635;BME280;8936;49.010;12.120;2023-05-17T02:12:47;98112.81;;;11.41;100.00
17635;BME280;8936;49.010;12.120;2023-05-17T02:15:13;98119.13;;;11.15;100.00
17635;BME280;8936;49.010;12.120;2023-05-17T02:17:42;98110.97;;;11.67;100.00
17635;BME280;8936;49.010;12.120;2023-05-17T02:20:08;98120.88;;;11.51;100.00
17635;BME280;8936;49.010;12.120;2023-05-17T02:22:35;98113.34;;;11.48;100.00
17635;BME280;8936;49.010;12.120;2023-05-17T02:25:02;98108.19;;;11.21;100.00
17635;BME280;8936;49.010;12.120;2023-05-17T02:27:28;98118.09;;;11.26;100.00
17635;BME280;8936;49.010;12.120;2023-05-17T02:29:55;98107.22;;;11.58;100.00
17635;BME280;8936;49.010;12.120;2023-05-17T02:32:21;98104.63;;;11.93;100.00
17635;BME280;8936;49.010;12.120;2023-05-17T02:34:49;98115.16;;;11.27;98.53
17635;BME280;8936;49.010;12.120;2023-05-17T02:37:15;98103.81;;;11.98;100.00
17635;BME280;8936;49.010;12.120;2023-05-17T02:39:41;98112.19;;;11.24;100.00
17635;BME280;8936;49.010;12.120;2023-05-17T02:42:08;98110.66;;;11.43;100.00
17635;BME280;8936;49.010;12.120;2023-05-17T02:44:34;98112.56;;;11.58;100.00
17635;BME280;8936;49.010;12.120;2023-05-17T02:47:00;98104.38;;;12.00;100.00
17635;BME280;8936;49.010;12.120;2023-05-17T02:49:27;98114.22;;;11.69;100.00
17635;BME280;8936;49.010;12.120;2023-05-17T02:51:54;98116.16;;;12.14;100.00
17635;BME280;8936;49.010;12.120;2023-05-17T02:54:23;98110.25;;;12.12;100.00
17635;BME280;8936;49.010;12.120;2023-05-17T02:56:49;98110.69;;;11.58;99.57
17635;BME280;8936;49.010;12.120;2023-05-17T02:59:15;98116.81;;;11.44;100.00
17635;BME280;8936;49.010;12.120;2023-05-17T03:01:42;98132.25;;;11.26;100.00
17635;BME280;8936;49.010;12.120;2023-05-17T03:04:08;98127.28;;;11.55;100.00
17635;BME280;8936;49.010;12.120;2023-05-17T03:06:34;98134.81;;;11.68;100.00
17635;BME280;8936;49.010;12.120;2023-05-17T03:09:03;98127.50;;;11.44;100.00
17635;BME280;8936;49.010;12.120;2023-05-17T03:11:31;98133.78;;;11.95;100.00
17635;BME280;8936;49.010;12.120;2023-05-17T03:13:57;98142.91;;;11.94;100.00
17635;BME280;8936;49.010;12.120;2023-05-17T03:16:23;98138.91;;;11.96;100.00
17635;BME280;8936;49.010;12.120;2023-05-17T03:18:50;98142.09;;;11.93;97.73
17635;BME280;8936;49.010;12.120;2023-05-17T03:21:16;98155.31;;;11.43;100.00
17635;BME280;8936;49.010;12.120;2023-05-17T03:23:43;98154.59;;;10.95;100.00
17635;BME280;8936;49.010;12.120;2023-05-17T03:26:11;98161.59;;;11.11;100.00
17635;BME280;8936;49.010;12.120;2023-05-17T03:28:37;98166.72;;;11.18;100.00
17635;BME280;8936;49.010;12.120;2023-05-17T03:31:04;98165.88;;;11.07;100.00
17635;BME280;8936;49.010;12.120;2023-05-17T03:33:30;98167.56;;;11.33;100.00
17635;BME280;8936;49.010;12.120;2023-05-17T03:35:57;98179.59;;;11.26;100.00
17635;BME280;8936;49.010;12.120;2023-05-17T03:38:23;98175.75;;;11.07;100.00
17635;BME280;8936;49.010;12.120;2023-05-17T03:40:50;98174.47;;;10.36;100.00
17635;BME280;8936;49.010;12.120;2023-05-17T03:43:18;98179.00;;;10.72;100.00
17635;BME280;8936;49.010;12.120;2023-05-17T03:45:45;98179.75;;;10.62;100.00
17635;BME280;8936;49.010;12.120;2023-05-17T03:48:11;98187.53;;;11.11;100.00
17635;BME280;8936;49.010;12.120;2023-05-17T03:50:38;98191.00;;;10.69;100.00
17635;BME280;8936;49.010;12.120;2023-05-17T03:53:05;98192.03;;;10.63;100.00
17635;BME280;8936;49.010;12.120;2023-05-17T03:55:31;98195.34;;;10.80;100.00
17635;BME280;8936;49.010;12.120;2023-05-17T03:57:57;98206.44;;;10.99;100.00
17635;BME280;8936;49.010;12.120;2023-05-17T04:00:25;98202.91;;;10.89;100.00
17635;BME280;8936;49.010;12.120;2023-05-17T04:02:51;98210.66;;;10.53;100.00
17635;BME280;8936;49.010;12.120;2023-05-17T04:05:18;98209.03;;;11.36;100.00
17635;BME280;8936;49.010;12.120;2023-05-17T04:07:44;98217.63;;;10.96;100.00
17635;BME280;8936;49.010;12.120;2023-05-17T04:10:11;98222.75;;;11.03;100.00
17635;BME280;8936;49.010;12.120;2023-05-17T04:12:37;98224.91;;;11.58;100.00
17635;BME280;8936;49.010;12.120;2023-05-17T04:15:04;98220.88;;;11.55;100.00
17635;BME280;8936;49.010;12.120;2023-05-17T04:17:32;98218.41;;;12.01;100.00
17635;BME280;8936;49.010;12.120;2023-05-17T04:19:59;98223.69;;;11.75;100.00
17635;BME280;8936;49.010;12.120;2023-05-17T04:22:25;98220.84;;;11.45;100.00
17635;BME280;8936;49.010;12.120;2023-05-17T04:24:51;98223.94;;;11.17;100.00
17635;BME280;8936;49.010;12.120;2023-05-17T04:27:18;98229.94;;;10.97;100.00
17635;BME280;8936;49.010;12.120;2023-05-17T04:29:45;98232.84;;;10.91;100.00
17635;BME280;8936;49.010;12.120;2023-05-17T04:32:11;98237.97;;;10.97;100.00
17635;BME280;8936;49.010;12.120;2023-05-17T04:34:39;98243.16;;;11.19;100.00
17635;BME280;8936;49.010;12.120;2023-05-17T04:37:07;98243.22;;;11.81;100.00
17635;BME280;8936;49.010;12.120;2023-05-17T04:39:33;98248.84;;;10.86;100.00
17635;BME280;8936;49.010;12.120;2023-05-17T04:42:00;98255.97;;;10.80;100.00
17635;BME280;8936;49.010;12.120;2023-05-17T04:44:27;98266.25;;;10.93;100.00
17635;BME280;8936;49.010;12.120;2023-05-17T04:46:54;98263.41;;;11.52;100.00
17635;BME280;8936;49.010;12.120;2023-05-17T04:49:20;98268.66;;;11.36;100.00
17635;BME280;8936;49.010;12.120;2023-05-17T04:51:50;98267.47;;;11.64;100.00
17635;BME280;8936;49.010;12.120;2023-05-17T04:54:16;98263.59;;;11.40;100.00
17635;BME280;8936;49.010;12.120;2023-05-17T04:56:43;98276.13;;;10.93;100.00
17635;BME280;8936;49.010;12.120;2023-05-17T04:59:09;98273.56;;;11.55;100.00
17635;BME280;8936;49.010;12.120;2023-05-17T05:01:36;98281.06;;;11.58;100.00
17635;BME280;8936;49.010;12.120;2023-05-17T05:04:02;98280.38;;;10.89;100.00
17635;BME280;8936;49.010;12.120;2023-05-17T05:06:31;98282.69;;;10.75;100.00
17635;BME280;8936;49.010;12.120;2023-05-17T05:08:58;98290.84;;;11.32;100.00
17635;BME280;8936;49.010;12.120;2023-05-17T05:11:25;98294.50;;;11.68;100.00
17635;BME280;8936;49.010;12.120;2023-05-17T05:13:51;98284.78;;;11.52;100.00
17635;BME280;8936;49.010;12.120;2023-05-17T05:16:18;98300.56;;;11.48;100.00
17635;BME280;8936;49.010;12.120;2023-05-17T05:18:44;98297.91;;;11.53;100.00
17635;BME280;8936;49.010;12.120;2023-05-17T05:21:11;98292.75;;;11.00;100.00
17635;BME280;8936;49.010;12.120;2023-05-17T05:23:37;98300.38;;;11.18;100.00
17635;BME280;8936;49.010;12.120;2023-05-17T05:26:05;98295.78;;;10.76;100.00
17635;BME280;8936;49.010;12.120;2023-05-17T05:28:31;98301.56;;;10.95;100.00
17635;BME280;8936;49.010;12.120;2023-05-17T05:30:57;98299.94;;;11.31;100.00
17635;BME280;8936;49.010;12.120;2023-05-17T05:33:24;98307.81;;;11.53;100.00
17635;BME280;8936;49.010;12.120;2023-05-17T05:35:51;98308.69;;;11.63;100.00
17635;BME280;8936;49.010;12.120;2023-05-17T05:38:17;98308.28;;;11.86;100.00
17635;BME280;8936;49.010;12.120;2023-05-17T05:40:44;98312.34;;;11.47;100.00
17635;BME280;8936;49.010;12.120;2023-05-17T05:43:13;98323.34;;;11.56;100.00
17635;BME280;8936;49.010;12.120;2023-05-17T05:45:40;98324.16;;;12.03;100.00
17635;BME280;8936;49.010;12.120;2023-05-17T05:48:10;98318.47;;;11.89;100.00
17635;BME280;8936;49.010;12.120;2023-05-17T05:50:36;98328.34;;;11.84;100.00
17635;BME280;8936;49.010;12.120;2023-05-17T05:53:03;98323.09;;;12.09;100.00
17635;BME280;8936;49.010;12.120;2023-05-17T05:55:30;98321.56;;;12.38;100.00
17635;BME280;8936;49.010;12.120;2023-05-17T05:57:56;98326.66;;;11.73;100.00
17635;BME280;8936;49.010;12.120;2023-05-17T06:00:24;98337.22;;;11.48;100.00
17635;BME280;8936;49.010;12.120;2023-05-17T06:02:51;98334.16;;;11.34;100.00
17635;BME280;8936;49.010;12.120;2023-05-17T06:05:18;98335.16;;;11.65;100.00
17635;BME280;8936;49.010;12.120;2023-05-17T06:07:45;98328.69;;;12.03;100.00
17635;BME280;8936;49.010;12.120;2023-05-17T06:10:11;98339.56;;;11.86;100.00
17635;BME280;8936;49.010;12.120;2023-05-17T06:12:38;98326.31;;;12.11;100.00
17635;BME280;8936;49.010;12.120;2023-05-17T06:15:05;98334.41;;;12.31;100.00
17635;BME280;8936;49.010;12.120;2023-05-17T06:17:33;98332.88;;;12.66;99.90
17635;BME280;8936;49.010;12.120;2023-05-17T06:19:59;98331.31;;;12.90;97.13
17635;BME280;8936;49.010;12.120;2023-05-17T06:22:25;98327.25;;;12.82;95.46
17635;BME280;8936;49.010;12.120;2023-05-17T06:24:52;98331.00;;;12.76;96.42
17635;BME280;8936;49.010;12.120;2023-05-17T06:27:18;98330.50;;;12.99;97.60
17635;BME280;8936;49.010;12.120;2023-05-17T06:29:45;98334.47;;;12.67;94.20
17635;BME280;8936;49.010;12.120;2023-05-17T06:32:11;98324.25;;;12.38;93.56
17635;BME280;8936;49.010;12.120;2023-05-17T06:34:39;98341.16;;;12.49;94.71
17635;BME280;8936;49.010;12.120;2023-05-17T06:37:05;98343.34;;;12.87;94.66
17635;BME280;8936;49.010;12.120;2023-05-17T06:39:32;98341.81;;;13.12;92.24
17635;BME280;8936;49.010;12.120;2023-05-17T06:41:58;98336.41;;;12.86;91.98
17635;BME280;8936;49.010;12.120;2023-05-17T06:44:25;98340.66;;;12.82;93.70
17635;BME280;8936;49.010;12.120;2023-05-17T06:46:51;98343.91;;;12.89;92.79
17635;BME280;8936;49.010;12.120;2023-05-17T06:49:18;98332.66;;;13.23;91.39
17635;BME280;8936;49.010;12.120;2023-05-17T06:51:46;98339.13;;;13.12;90.80
17635;BME280;8936;49.010;12.120;2023-05-17T06:54:13;98345.81;;;13.14;91.09
17635;BME280;8936;49.010;12.120;2023-05-17T06:56:39;98340.66;;;12.87;89.62
17635;BME280;8936;49.010;12.120;2023-05-17T06:59:05;98348.75;;;13.23;91.03
17635;BME280;8936;49.010;12.120;2023-05-17T07:01:32;98349.19;;;13.85;89.40
17635;BME280;8936;49.010;12.120;2023-05-17T07:03:58;98344.97;;;13.64;89.94
17635;BME280;8936;49.010;12.120;2023-05-17T07:06:25;98350.28;;;13.74;90.18
17635;BME280;8936;49.010;12.120;2023-05-17T07:08:52;98361.00;;;13.84;86.29
17635;BME280;8936;49.010;12.120;2023-05-17T07:11:19;98363.22;;;13.32;86.69
17635;BME280;8936;49.010;12.120;2023-05-17T07:13:45;98357.53;;;13.69;88.50
17635;BME280;8936;49.010;12.120;2023-05-17T07:16:13;98357.88;;;13.42;85.33
17635;BME280;8936;49.010;12.120;2023-05-17T07:18:40;98358.94;;;13.26;88.07
17635;BME280;8936;49.010;12.120;2023-05-17T07:21:06;98364.31;;;13.41;88.09
17635;BME280;8936;49.010;12.120;2023-05-17T07:23:32;98358.13;;;12.90;87.16
17635;BME280;8936;49.010;12.120;2023-05-17T07:26:00;98369.16;;;13.09;90.92
17635;BME280;8936;49.010;12.120;2023-05-17T07:28:26;98374.50;;;13.29;91.12
17635;BME280;8936;49.010;12.120;2023-05-17T07:30:53;98371.25;;;13.47;88.33
17635;BME280;8936;49.010;12.120;2023-05-17T07:33:20;98365.38;;;13.25;90.12
17635;BME280;8936;49.010;12.120;2023-05-17T07:35:46;98360.97;;;13.94;91.57
17635;BME280;8936;49.010;12.120;2023-05-17T07:38:12;98361.91;;;13.29;89.21
17635;BME280;8936;49.010;12.120;2023-05-17T07:40:39;98358.41;;;13.34;89.98
17635;BME280;8936;49.010;12.120;2023-05-17T07:43:07;98366.91;;;13.91;91.55
17635;BME280;8936;49.010;12.120;2023-05-17T07:45:33;98366.34;;;13.94;87.58
17635;BME280;8936;49.010;12.120;2023-05-17T07:47:59;98354.75;;;14.68;87.90
17635;BME280;8936;49.010;12.120;2023-05-17T07:50:26;98357.59;;;14.87;84.17
17635;BME280;8936;49.010;12.120;2023-05-17T07:52:52;98346.91;;;15.10;84.02
17635;BME280;8936;49.010;12.120;2023-05-17T07:55:19;98356.72;;;14.57;81.85
17635;BME280;8936;49.010;12.120;2023-05-17T07:57:45;98359.50;;;14.37;83.00
17635;BME280;8936;49.010;12.120;2023-05-17T08:00:14;98361.69;;;14.20;86.40
17635;BME280;8936;49.010;12.120;2023-05-17T08:02:43;98367.50;;;14.42;85.63
17635;BME280;8936;49.010;12.120;2023-05-17T08:05:10;98368.06;;;13.45;85.08
17635;BME280;8936;49.010;12.120;2023-05-17T08:07:36;98370.13;;;13.83;87.17
17635;BME280;8936;49.010;12.120;2023-05-17T08:10:03;98366.81;;;14.12;86.64
17635;BME280;8936;49.010;12.120;2023-05-17T08:12:29;98366.16;;;14.50;81.94
17635;BME280;8936;49.010;12.120;2023-05-17T08:14:55;98363.28;;;14.80;83.76
17635;BME280;8936;49.010;12.120;2023-05-17T08:17:23;98359.78;;;14.21;82.19
17635;BME280;8936;49.010;12.120;2023-05-17T08:19:50;98367.41;;;13.98;84.09
17635;BME280;8936;49.010;12.120;2023-05-17T08:22:16;98367.50;;;13.63;81.70
17635;BME280;8936;49.010;12.120;2023-05-17T08:24:43;98375.91;;;14.36;86.19
17635;BME280;8936;49.010;12.120;2023-05-17T08:27:09;98367.78;;;14.46;82.06
17635;BME280;8936;49.010;12.120;2023-05-17T08:29:36;98374.53;;;14.28;80.18
17635;BME280;8936;49.010;12.120;2023-05-17T08:32:03;98379.66;;;14.25;83.47
17635;BME280;8936;49.010;12.120;2023-05-17T08:34:31;98370.75;;;14.39;80.68
17635;BME280;8936;49.010;12.120;2023-05-17T08:36:57;98376.69;;;14.41;82.78
17635;BME280;8936;49.010;12.120;2023-05-17T08:39:23;98371.19;;;13.87;80.26
17635;BME280;8936;49.010;12.120;2023-05-17T08:41:50;98373.34;;;13.95;82.21
17635;BME280;8936;49.010;12.120;2023-05-17T08:44:17;98377.00;;;14.15;81.20
17635;BME280;8936;49.010;12.120;2023-05-17T08:46:44;98381.66;;;13.94;78.98
17635;BME280;8936;49.010;12.120;2023-05-17T08:49:15;98373.69;;;14.43;82.45
17635;BME280;8936;49.010;12.120;2023-05-17T08:51:44;98389.88;;;14.18;80.44
17635;BME280;8936;49.010;12.120;2023-05-17T08:54:11;98385.66;;;14.01;81.14
17635;BME280;8936;49.010;12.120;2023-05-17T08:56:38;98397.47;;;14.11;79.63
17635;BME280;8936;49.010;12.120;2023-05-17T08:59:07;98388.81;;;14.19;79.23
17635;BME280;8936;49.010;12.120;2023-05-17T09:01:34;98394.59;;;14.56;80.75
17635;BME280;8936;49.010;12.120;2023-05-17T09:04:02;98391.34;;;14.59;78.08
17635;BME280;8936;49.010;12.120;2023-05-17T09:06:29;98397.88;;;14.48;77.98
17635;BME280;8936;49.010;12.120;2023-05-17T09:08:58;98398.47;;;14.84;77.61
17635;BME280;8936;49.010;12.120;2023-05-17T09:11:27;98403.69;;;14.65;76.37
17635;BME280;8936;49.010;12.120;2023-05-17T09:13:56;98398.38;;;14.55;75.87
17635;BME280;8936;49.010;12.120;2023-05-17T09:16:23;98400.59;;;14.33;75.96
17635;BME280;8936;49.010;12.120;2023-05-17T09:18:53;98403.25;;;14.48;76.01
17635;BME280;8936;49.010;12.120;2023-05-17T09:21:20;98408.56;;;14.63;78.42
17635;BME280;8936;49.010;12.120;2023-05-17T09:23:46;98407.41;;;14.74;77.69
17635;BME280;8936;49.010;12.120;2023-05-17T09:26:14;98409.09;;;14.55;75.66
17635;BME280;8936;49.010;12.120;2023-05-17T09:28:42;98405.66;;;14.49;77.04
17635;BME280;8936;49.010;12.120;2023-05-17T09:31:09;98408.97;;;14.85;78.62
17635;BME280;8936;49.010;12.120;2023-05-17T09:33:41;98404.63;;;14.89;75.25
17635;BME280;8936;49.010;12.120;2023-05-17T09:36:13;98405.69;;;14.93;73.99
17635;BME280;8936;49.010;12.120;2023-05-17T09:38:40;98408.81;;;14.62;73.66
17635;BME280;8936;49.010;12.120;2023-05-17T09:41:07;98414.97;;;14.72;74.07
17635;BME280;8936;49.010;12.120;2023-05-17T09:43:35;98414.00;;;14.48;74.88
17635;BME280;8936;49.010;12.120;2023-05-17T09:46:01;98425.00;;;14.46;75.75
17635;BME280;8936;49.010;12.120;2023-05-17T09:48:27;98421.44;;;14.66;77.03
17635;BME280;8936;49.010;12.120;2023-05-17T09:50:54;98423.16;;;14.42;74.92
17635;BME280;8936;49.010;12.120;2023-05-17T09:53:21;98423.16;;;14.37;75.67
17635;BME280;8936;49.010;12.120;2023-05-17T09:55:48;98427.38;;;14.58;76.08
17635;BME280;8936;49.010;12.120;2023-05-17T09:58:14;98417.97;;;15.04;74.26
17635;BME280;8936;49.010;12.120;2023-05-17T10:00:43;98416.63;;;15.07;72.67
17635;BME280;8936;49.010;12.120;2023-05-17T10:03:10;98434.03;;;14.76;72.13
17635;BME280;8936;49.010;12.120;2023-05-17T10:05:37;98430.44;;;14.26;71.81
17635;BME280;8936;49.010;12.120;2023-05-17T10:08:05;98426.44;;;14.88;74.59
17635;BME280;8936;49.010;12.120;2023-05-17T10:10:32;98425.16;;;14.75;70.33
17635;BME280;8936;49.010;12.120;2023-05-17T10:12:58;98427.56;;;14.77;72.03
17635;BME280;8936;49.010;12.120;2023-05-17T10:15:26;98422.13;;;14.87;70.19
17635;BME280;8936;49.010;12.120;2023-05-17T10:17:54;98419.22;;;14.73;68.91
17635;BME280;8936;49.010;12.120;2023-05-17T10:20:21;98415.56;;;14.59;70.41
17635;BME280;8936;49.010;12.120;2023-05-17T10:22:47;98412.13;;;14.97;70.23
17635;BME280;8936;49.010;12.120;2023-05-17T10:25:14;98421.78;;;14.98;70.00
17635;BME280;8936;49.010;12.120;2023-05-17T10:27:40;98411.13;;;14.83;68.54
17635;BME280;8936;49.010;12.120;2023-05-17T10:30:07;98419.31;;;15.07;70.18
17635;BME280;8936;49.010;12.120;2023-05-17T10:32:35;98402.44;;;14.96;68.60
17635;BME280;8936;49.010;12.120;2023-05-17T10:35:03;98403.19;;;15.02;67.28
17635;BME280;8936;49.010;12.120;2023-05-17T10:37:30;98398.31;;;14.65;65.50
17635;BME280;8936;49.010;12.120;2023-05-17T10:39:57;98400.31;;;14.93;68.41
17635;BME280;8936;49.010;12.120;2023-05-17T10:42:23;98398.78;;;14.77;66.13
17635;BME280;8936;49.010;12.120;2023-05-17T10:44:51;98402.78;;;14.85;66.62
17635;BME280;8936;49.010;12.120;2023-05-17T10:47:18;98391.78;;;14.81;65.96
17635;BME280;8936;49.010;12.120;2023-05-17T10:49:45;98387.16;;;14.87;67.54
17635;BME280;8936;49.010;12.120;2023-05-17T10:52:16;98394.25;;;14.73;66.78
17635;BME280;8936;49.010;12.120;2023-05-17T10:54:43;98401.63;;;14.47;65.71
17635;BME280;8936;49.010;12.120;2023-05-17T10:57:17;98392.19;;;14.54;66.77
17635;BME280;8936;49.010;12.120;2023-05-17T10:59:54;98394.03;;;14.59;66.12
17635;BME280;8936;49.010;12.120;2023-05-17T11:02:22;98386.41;;;14.81;66.86
17635;BME280;8936;49.010;12.120;2023-05-17T11:04:49;98388.63;;;15.08;66.86
17635;BME280;8936;49.010;12.120;2023-05-17T11:07:27;98390.75;;;15.45;66.29
17635;BME280;8936;49.010;12.120;2023-05-17T11:10:01;98388.31;;;15.53;63.82
17635;BME280;8936;49.010;12.120;2023-05-17T11:12:30;98387.38;;;15.34;63.33
17635;BME280;8936;49.010;12.120;2023-05-17T11:14:58;98387.38;;;15.29;64.85
17635;BME280;8936;49.010;12.120;2023-05-17T11:17:27;98384.56;;;15.44;63.63
17635;BME280;8936;49.010;12.120;2023-05-17T11:20:06;98388.81;;;15.17;63.12
17635;BME280;8936;49.010;12.120;2023-05-17T11:22:37;98380.88;;;15.35;64.08
17635;BME280;8936;49.010;12.120;2023-05-17T11:25:10;98389.19;;;15.39;62.95
17635;BME280;8936;49.010;12.120;2023-05-17T11:27:37;98382.69;;;15.50;61.02
17635;BME280;8936;49.010;12.120;2023-05-17T11:30:08;98377.81;;;15.52;61.86
17635;BME280;8936;49.010;12.120;2023-05-17T11:32:35;98376.75;;;15.48;62.64
17635;BME280;8936;49.010;12.120;2023-05-17T11:35:01;98377.47;;;15.58;62.24
17635;BME280;8936;49.010;12.120;2023-05-17T11:37:28;98381.41;;;15.37;62.15
17635;BME280;8936;49.010;12.120;2023-05-17T11:40:04;98392.13;;;15.42;62.85
17635;BME280;8936;49.010;12.120;2023-05-17T11:42:31;98389.31;;;15.24;61.30
17635;BME280;8936;49.010;12.120;2023-05-17T11:44:57;98385.00;;;15.28;62.28
17635;BME280;8936;49.010;12.120;2023-05-17T11:47:26;98397.00;;;15.06;59.98
17635;BME280;8936;49.010;12.120;2023-05-17T11:49:52;98380.81;;;14.68;60.57
17635;BME280;8936;49.010;12.120;2023-05-17T11:52:19;98382.78;;;14.57;62.26
17635;BME280;8936;49.010;12.120;2023-05-17T11:54:46;98391.22;;;14.79;63.66
17635;BME280;8936;49.010;12.120;2023-05-17T11:57:14;98385.50;;;14.96;63.46
17635;BME280;8936;49.010;12.120;2023-05-17T11:59:42;98390.03;;;15.00;62.17
17635;BME280;8936;49.010;12.120;2023-05-17T12:02:08;98383.09;;;14.89;62.00
17635;BME280;8936;49.010;12.120;2023-05-17T12:04:35;98383.13;;;15.23;62.43
17635;BME280;8936;49.010;12.120;2023-05-17T12:07:02;98382.88;;;15.20;61.87
17635;BME280;8936;49.010;12.120;2023-05-17T12:09:29;98386.09;;;14.88;63.42
17635;BME280;8936;49.010;12.120;2023-05-17T12:11:55;98393.91;;;14.79;64.95
17635;BME280;8936;49.010;12.120;2023-05-17T12:14:25;98387.38;;;14.95;65.73
17635;BME280;8936;49.010;12.120;2023-05-17T12:16:52;98392.47;;;14.97;64.50
17635;BME280;8936;49.010;12.120;2023-05-17T12:19:20;98384.88;;;15.09;64.89
17635;BME280;8936;49.010;12.120;2023-05-17T12:21:47;98398.13;;;15.00;64.36
17635;BME280;8936;49.010;12.120;2023-05-17T12:24:14;98390.16;;;14.85;65.40
17635;BME280;8936;49.010;12.120;2023-05-17T12:26:43;98393.19;;;14.69;65.67
17635;BME280;8936;49.010;12.120;2023-05-17T12:29:10;98386.25;;;14.63;66.75
17635;BME280;8936;49.010;12.120;2023-05-17T12:31:39;98392.13;;;14.65;67.65
17635;BME280;8936;49.010;12.120;2023-05-17T12:34:06;98397.16;;;14.76;67.68
17635;BME280;8936;49.010;12.120;2023-05-17T12:36:33;98394.59;;;14.56;68.04
17635;BME280;8936;49.010;12.120;2023-05-17T12:39:01;98399.53;;;14.29;68.49
17635;BME280;8936;49.010;12.120;2023-05-17T12:41:30;98408.16;;;14.26;70.11
17635;BME280;8936;49.010;12.120;2023-05-17T12:43:56;98408.38;;;14.39;72.25
17635;BME280;8936;49.010;12.120;2023-05-17T12:46:23;98406.78;;;14.38;69.22
17635;BME280;8936;49.010;12.120;2023-05-17T12:48:51;98409.97;;;14.45;68.10
17635;BME280;8936;49.010;12.120;2023-05-17T12:51:18;98413.94;;;14.63;67.27
17635;BME280;8936;49.010;12.120;2023-05-17T12:53:48;98415.28;;;14.55;65.15
17635;BME280;8936;49.010;12.120;2023-05-17T12:56:15;98416.09;;;14.56;64.67